Overview Statistics Trail Chart Weather Telemetry Raw packets
 

This is the latest recevied weather packets stored in our database for station/object EA7OC-10. If no packets are shown the sender has not sent any weather packets the latest 10 day(s).

<< 22 23 24 25 26 27 28 >>
Time Temp. Humidity Pressure Rain* Wind** Luminosity Snow
1788071863 23.89° C 28% 1018.5 hPa - - - -
1788070963 20° C 27% 1018.3 hPa - - - -
1788070063 18.89° C 25% 1018.1 hPa - - - -
1788069163 18.89° C 25% 1018 hPa - - - -
1788068263 18.89° C 25% 1017.9 hPa - - - -
1788067363 18.89° C 25% 1017.9 hPa - - - -
1788066462 18.89° C 25% 1017.8 hPa - - - -
1788065562 19.44° C 25% 1017.7 hPa - - - -
1788064662 19.44° C 25% 1017.8 hPa - - - -
1788063762 19.44° C 25% 1017.7 hPa - - - -
1788062862 19.44° C 25% 1017.7 hPa - - - -
1788061962 19.44° C 25% 1017.5 hPa - - - -
1788061062 19.44° C 25% 1017.6 hPa - - - -
1788060162 20° C 25% 1017.7 hPa - - - -
1788058371 21.11° C 25% 1017.7 hPa - - - -
1788057471 21.67° C 25% 1017.7 hPa - - - -
1788056571 21.67° C 25% 1017.6 hPa - - - -
1788055671 21.67° C 25% 1017.7 hPa - - - -
1788054771 21.67° C 25% 1017.7 hPa - - - -
1788053871 21.67° C 25% 1017.8 hPa - - - -
1788052968 21.67° C 25% 1017.8 hPa - - - -
1788052068 22.78° C 24% 1017.9 hPa - - - -
1788051168 22.78° C 24% 1017.8 hPa - - - -
1788050268 22.78° C 25% 1017.7 hPa - - - -
1788049368 22.78° C 25% 1017.7 hPa - - - -

* Rain since midnight (hover to see other rain measurements)
** Current wind speed in m/s (hover to see current wind gust speed)